Burlington, Vermont
Current Conditions -  °F | °C
As of 4:54 PM on Friday 24 Oct 2014 (Local Time) from KBTV Reporting Station
Overcast Overcast  
Wind Chill:   Ceiling: 1800
Heat Index:   Visibility: 10mi
Dew Point:   Wind: 8mph
Humidity: 83%   Direction: 320°NW
Pressure: 29.84"   Gusts: NA
Location:  44.48°N, 73.21°W
Report Text: KBTV 242054Z 32007KT 10SM FEW011 OVC018 08/06 A2984 RMK AO2 RAB19E42 SLP107 CLDS OBSCG MTNS E-SE VCSH P0000 60000 T00830056 53001
Loading
Personal Weather Stations






























Interactive Weather Map
Tropical Storm Tracking
New forecast layout! Learn more

10-Day Weather Forecast

Advertisements
Track Severe Weather on mobile